Time;durP1;ratioP1;P1;durP2;ratioP2;P2;SDS_P1;SDS_P2;PMS_P1;PMS_P2;Temp;Humidity;BMP_temperature;BMP_pressure;BME280_temperature;BME280_humidity;BME280_pressure;Samples;Min_cycle;Max_cycle;Signal;HPM_P1;HPM_P2
2023/07/15 00:00:15;;;;;;;3.85;2.55;;;;;;;22.20;48.26;100329.06;5056524;28;20060;-50
2023/07/15 00:02:42;;;;;;;4.70;2.47;;;;;;;22.17;48.08;100325.72;5063559;28;20032;-50
2023/07/15 00:05:16;;;;;;;7.20;2.42;;;;;;;22.09;48.08;100317.81;5057897;28;20039;-50
2023/07/15 00:07:41;;;;;;;3.90;2.10;;;;;;;22.08;48.07;100318.88;5057689;28;20029;-50
2023/07/15 00:10:07;;;;;;;8.85;2.67;;;;;;;22.06;48.32;100320.09;5056835;28;20029;-49
2023/07/15 00:12:33;;;;;;;4.95;2.00;;;;;;;22.04;48.18;100322.19;5062430;28;20028;-52
2023/07/15 00:14:59;;;;;;;8.52;2.60;;;;;;;22.00;48.12;100316.38;5057962;28;20025;-51
2023/07/15 00:17:24;;;;;;;5.60;2.50;;;;;;;21.95;48.18;100316.97;5060846;28;20082;-50
2023/07/15 00:19:50;;;;;;;6.65;2.38;;;;;;;21.95;47.90;100322.38;5058063;28;20029;-50
2023/07/15 00:22:15;;;;;;;4.43;2.33;;;;;;;21.92;48.20;100319.25;5061104;28;20029;-50
2023/07/15 00:24:41;;;;;;;5.15;2.30;;;;;;;21.86;48.26;100314.66;5057888;28;20099;-50
2023/07/15 00:27:08;;;;;;;3.45;2.20;;;;;;;21.84;48.27;100314.88;5058250;28;20048;-49
2023/07/15 00:29:33;;;;;;;2.53;2.03;;;;;;;21.81;48.09;100324.19;5061880;28;20021;-50
2023/07/15 00:32:03;;;;;;;5.20;2.55;;;;;;;21.81;48.06;100321.50;5062623;28;20048;-52
2023/07/15 00:34:29;;;;;;;4.70;1.95;;;;;;;21.79;48.11;100320.06;5061664;28;20331;-50
2023/07/15 00:36:54;;;;;;;4.13;2.10;;;;;;;21.78;48.24;100323.78;5056565;28;20036;-53
2023/07/15 00:39:19;;;;;;;4.18;2.22;;;;;;;21.76;48.44;100317.75;5057911;28;20326;-51
2023/07/15 00:41:45;;;;;;;4.23;2.13;;;;;;;21.75;48.47;100324.19;5060655;28;20031;-53
2023/07/15 00:44:14;;;;;;;8.90;2.00;;;;;;;21.73;48.74;100323.56;5059801;28;20359;-50
2023/07/15 00:46:43;;;;;;;;;;;;;;;21.81;48.47;100326.91;5061950;28;20040;-51
2023/07/15 00:49:22;;;;;;;7.47;2.42;;;;;;;21.72;48.64;100324.63;5059186;28;19909;-50
2023/07/15 00:52:11;;;;;;;3.25;2.00;;;;;;;21.71;48.46;100339.16;5060277;28;20107;-49
2023/07/15 00:54:40;;;;;;;5.93;2.17;;;;;;;21.67;48.57;100335.22;5059929;28;20032;-50
2023/07/15 00:57:07;;;;;;;4.57;2.10;;;;;;;21.64;49.14;100331.03;5058234;28;20096;-52
2023/07/15 00:59:34;;;;;;;4.53;2.00;;;;;;;21.63;48.81;100337.47;5060842;28;20028;-50
2023/07/15 01:02:00;;;;;;;8.57;2.20;;;;;;;21.60;48.47;100332.50;5058202;28;20040;-49
2023/07/15 01:04:26;;;;;;;4.05;2.03;;;;;;;21.56;48.70;100328.50;5063161;28;20028;-49
2023/07/15 01:06:54;;;;;;;5.55;2.17;;;;;;;21.51;49.01;100326.41;5061127;28;20025;-50
2023/07/15 01:09:19;;;;;;;5.45;2.08;;;;;;;21.46;49.72;100331.56;5060684;28;20112;-50
2023/07/15 01:11:45;;;;;;;4.95;2.22;;;;;;;21.43;50.01;100335.50;5060407;28;20485;-50
2023/07/15 01:14:12;;;;;;;4.88;1.90;;;;;;;21.39;49.63;100336.09;5058627;28;20025;-50
2023/07/15 01:16:38;;;;;;;5.53;2.08;;;;;;;21.36;49.87;100337.31;5063302;28;20037;-50
2023/07/15 01:19:04;;;;;;;5.28;2.00;;;;;;;21.31;49.56;100337.09;5062837;28;20470;-49
2023/07/15 01:21:33;;;;;;;5.95;2.38;;;;;;;21.28;49.71;100344.78;5067629;28;20159;-50
2023/07/15 01:23:58;;;;;;;3.95;2.20;;;;;;;21.22;49.98;100328.34;5061633;28;20553;-50
2023/07/15 01:26:24;;;;;;;4.53;2.17;;;;;;;21.20;50.04;100333.13;5060071;28;20372;-50
2023/07/15 01:28:49;;;;;;;3.47;2.10;;;;;;;21.15;50.44;100332.88;5064825;28;20050;-50
2023/07/15 01:31:14;;;;;;;3.28;1.95;;;;;;;21.15;50.24;100340.13;5060267;28;20044;-50
2023/07/15 01:33:40;;;;;;;3.25;2.30;;;;;;;21.09;50.50;100344.47;5067547;28;20023;-50
2023/07/15 01:36:05;;;;;;;2.90;2.20;;;;;;;21.04;50.66;100338.84;5061649;28;20020;-50
2023/07/15 01:38:31;;;;;;;4.72;2.00;;;;;;;21.01;50.34;100337.34;5066224;28;20437;-50
2023/07/15 01:40:57;;;;;;;5.82;2.00;;;;;;;20.97;50.66;100337.97;5060378;28;20028;-50
2023/07/15 01:43:22;;;;;;;3.10;2.30;;;;;;;20.94;50.77;100347.28;5065015;28;20029;-50
2023/07/15 01:45:47;;;;;;;4.47;2.17;;;;;;;20.84;51.73;100347.63;5059803;28;20044;-50
2023/07/15 01:48:12;;;;;;;4.50;2.00;;;;;;;20.83;51.87;100355.94;5063630;28;20103;-50
2023/07/15 01:50:39;;;;;;;5.85;2.28;;;;;;;20.80;51.47;100353.63;5059882;28;20124;-50
2023/07/15 01:53:05;;;;;;;5.43;2.25;;;;;;;20.77;52.01;100346.75;5067208;28;20029;-50
2023/07/15 01:55:30;;;;;;;8.07;2.20;;;;;;;20.71;52.15;100342.16;5062074;28;20428;-50
2023/07/15 01:57:55;;;;;;;7.05;2.38;;;;;;;20.71;52.11;100358.34;5066815;28;20025;-50
2023/07/15 02:00:21;;;;;;;5.38;2.78;;;;;;;20.67;52.24;100357.91;5060850;28;20021;-49
2023/07/15 02:02:47;;;;;;;4.28;2.10;;;;;;;20.61;52.54;100360.50;5061375;28;20539;-51
2023/07/15 02:05:12;;;;;;;4.57;2.05;;;;;;;20.56;52.43;100357.56;5067909;28;20087;-50
2023/07/15 02:07:37;;;;;;;6.65;1.83;;;;;;;20.54;52.69;100360.47;5065505;28;20056;-50
2023/07/15 02:10:03;;;;;;;4.38;2.10;;;;;;;20.48;52.85;100347.75;5061010;28;20025;-50
2023/07/15 02:12:28;;;;;;;4.28;2.05;;;;;;;20.41;53.62;100353.06;5061149;28;20524;-51
2023/07/15 02:14:54;;;;;;;3.67;2.10;;;;;;;20.40;53.37;100355.97;5061932;28;20358;-50
2023/07/15 02:17:22;;;;;;;2.63;2.10;;;;;;;20.29;54.18;100360.84;5062690;28;20421;-50
2023/07/15 02:19:48;;;;;;;4.10;2.10;;;;;;;20.28;54.12;100366.44;5061473;28;20024;-50
2023/07/15 02:22:14;;;;;;;3.67;2.15;;;;;;;20.27;54.02;100362.09;5063632;28;20452;-50
2023/07/15 02:24:39;;;;;;;9.30;2.30;;;;;;;20.22;54.05;100364.53;5063552;28;20134;-49
2023/07/15 02:27:04;;;;;;;5.22;2.10;;;;;;;20.18;54.44;100366.75;5063769;28;20021;-51
2023/07/15 02:29:30;;;;;;;5.22;2.20;;;;;;;20.17;55.17;100364.25;5061290;28;20047;-50
2023/07/15 02:31:55;;;;;;;6.47;2.22;;;;;;;20.12;55.31;100368.38;5058714;28;20099;-49
2023/07/15 02:34:21;;;;;;;4.65;2.35;;;;;;;20.09;54.99;100366.06;5061051;28;20033;-49
2023/07/15 02:36:47;;;;;;;4.82;2.38;;;;;;;20.01;55.58;100366.19;5063528;28;20079;-49
2023/07/15 02:39:13;;;;;;;3.83;2.13;;;;;;;20.05;55.38;100366.63;5059910;28;20174;-49
2023/07/15 02:41:38;;;;;;;5.45;2.10;;;;;;;19.96;56.20;100365.91;5064155;28;20516;-50
2023/07/15 02:44:05;;;;;;;7.05;2.35;;;;;;;19.93;56.10;100364.47;5059206;28;20025;-50
2023/07/15 02:46:30;;;;;;;4.70;1.98;;;;;;;19.90;56.35;100363.97;5063669;28;20032;-49
2023/07/15 02:48:55;;;;;;;4.13;2.08;;;;;;;19.88;56.17;100360.66;5063797;28;20466;-50
2023/07/15 02:51:22;;;;;;;5.80;2.00;;;;;;;19.82;56.13;100354.16;5062473;28;20040;-49
2023/07/15 02:53:47;;;;;;;8.43;2.33;;;;;;;19.81;56.67;100359.75;5061927;28;20025;-50
2023/07/15 02:56:13;;;;;;;8.27;2.30;;;;;;;19.77;56.71;100362.00;5060546;28;20028;-50
2023/07/15 02:58:40;;;;;;;5.50;2.20;;;;;;;19.71;57.38;100355.44;5057427;28;20025;-49
2023/07/15 03:01:07;;;;;;;5.03;2.42;;;;;;;19.65;56.89;100356.22;5063396;28;20069;-50
2023/07/15 03:03:33;;;;;;;5.03;2.20;;;;;;;19.65;57.33;100358.94;5060340;28;20086;-50
2023/07/15 03:05:58;;;;;;;7.93;2.40;;;;;;;19.57;57.16;100359.03;5063643;28;20510;-50
2023/07/15 03:08:24;;;;;;;11.23;2.60;;;;;;;19.56;57.68;100358.19;5059165;28;20029;-50
2023/07/15 03:10:49;;;;;;;2.28;2.00;;;;;;;19.49;58.11;100354.56;5061064;28;20044;-50
2023/07/15 03:13:15;;;;;;;4.13;2.30;;;;;;;19.45;57.91;100358.69;5061477;28;20072;-50
2023/07/15 03:15:42;;;;;;;3.33;2.35;;;;;;;19.45;58.44;100360.50;5060865;28;20032;-49
2023/07/15 03:18:08;;;;;;;4.85;2.15;;;;;;;19.41;58.22;100360.06;5060860;28;20029;-49
2023/07/15 03:20:33;;;;;;;5.45;2.85;;;;;;;19.41;58.29;100360.06;5061869;28;20019;-50
2023/07/15 03:22:58;;;;;;;3.53;2.30;;;;;;;19.36;58.40;100367.88;5059875;28;20063;-49
2023/07/15 03:25:24;;;;;;;3.78;2.28;;;;;;;19.31;58.79;100370.28;5060901;28;20024;-50
2023/07/15 03:27:50;;;;;;;4.03;2.38;;;;;;;19.24;58.64;100362.13;5060153;28;20025;-50
2023/07/15 03:30:16;;;;;;;4.82;2.20;;;;;;;19.20;59.31;100358.13;5063211;28;20032;-49
2023/07/15 03:32:42;;;;;;;4.30;2.10;;;;;;;19.17;59.29;100359.34;5057706;28;20048;-50
2023/07/15 03:35:08;;;;;;;5.97;2.50;;;;;;;19.14;60.06;100365.09;5062062;28;20381;-49
2023/07/15 03:37:35;;;;;;;3.65;2.20;;;;;;;19.14;59.93;100362.41;5059019;28;20024;-50
2023/07/15 03:40:01;;;;;;;4.78;2.35;;;;;;;19.08;59.84;100365.81;5059953;28;20703;-50
2023/07/15 03:42:27;;;;;;;5.05;2.30;;;;;;;19.03;60.77;100358.31;5059262;28;20382;-50
2023/07/15 03:44:53;;;;;;;2.85;2.25;;;;;;;18.96;60.75;100364.63;5061753;28;20129;-50
2023/07/15 03:47:19;;;;;;;5.82;3.03;;;;;;;18.97;60.70;100367.13;5060121;28;20108;-50
2023/07/15 03:49:45;;;;;;;6.32;2.40;;;;;;;18.94;61.02;100359.41;5061522;28;20028;-50
2023/07/15 03:52:10;;;;;;;5.18;2.30;;;;;;;18.89;61.42;100361.81;5058859;28;20439;-53
2023/07/15 03:54:36;;;;;;;4.67;2.50;;;;;;;18.89;61.72;100361.81;5059699;28;20075;-50
2023/07/15 03:57:02;;;;;;;5.68;2.42;;;;;;;18.88;61.48;100353.94;5057690;28;20283;-50
2023/07/15 03:59:27;;;;;;;9.55;2.63;;;;;;;18.82;61.88;100358.19;5058601;28;20450;-51
2023/07/15 04:01:53;;;;;;;6.95;2.75;;;;;;;18.83;61.97;100371.44;5057331;28;20070;-53
2023/07/15 04:04:18;;;;;;;5.90;2.20;;;;;;;18.78;61.90;100354.16;5062362;28;20021;-51
2023/07/15 04:06:43;;;;;;;7.63;2.60;;;;;;;18.77;61.82;100353.34;5058013;28;20040;-53
2023/07/15 04:09:12;;;;;;;6.82;2.45;;;;;;;18.75;61.79;100354.53;5063792;28;20024;-51
2023/07/15 04:11:39;;;;;;;3.13;2.33;;;;;;;18.76;62.38;100356.22;5057936;28;20051;-50
2023/07/15 04:14:04;;;;;;;3.65;2.30;;;;;;;18.75;62.16;100357.22;5062054;28;20017;-50
2023/07/15 04:16:29;;;;;;;5.72;2.78;;;;;;;18.73;62.53;100354.72;5064392;28;20386;-50
2023/07/15 04:18:55;;;;;;;5.53;2.50;;;;;;;18.70;62.12;100357.75;5066794;28;20016;-53
2023/07/15 04:21:21;;;;;;;6.72;2.42;;;;;;;18.70;62.43;100355.06;5058449;28;20454;-53
2023/07/15 04:23:46;;;;;;;5.65;2.38;;;;;;;18.70;62.40;100357.75;5058301;28;20029;-50
2023/07/15 04:26:12;;;;;;;2.92;2.35;;;;;;;18.70;63.36;100359.63;5056722;28;20082;-53
2023/07/15 04:28:37;;;;;;;3.75;2.50;;;;;;;18.67;62.39;100358.16;5065207;28;20441;-53
2023/07/15 04:31:02;;;;;;;3.88;2.30;;;;;;;18.61;62.72;100348.94;5056992;28;20113;-53
2023/07/15 04:33:28;;;;;;;4.38;2.28;;;;;;;18.68;63.00;100357.97;5061006;28;20021;-50
2023/07/15 04:35:53;;;;;;;3.63;2.40;;;;;;;18.68;62.41;100362.50;5056930;28;20106;-51
2023/07/15 04:38:20;;;;;;;8.27;3.22;;;;;;;18.67;62.34;100358.16;5060302;28;20281;-50
2023/07/15 04:40:46;;;;;;;5.72;2.45;;;;;;;18.70;63.10;100365.84;5068949;28;20336;-50
2023/07/15 04:43:11;;;;;;;5.10;2.60;;;;;;;18.74;62.88;100369.84;5061265;28;20712;-53
2023/07/15 04:45:36;;;;;;;4.18;2.30;;;;;;;18.76;62.88;100375.88;5060998;28;20029;-49
2023/07/15 04:48:03;;;;;;;3.80;2.20;;;;;;;18.76;63.19;100375.88;5060845;28;20036;-53
2023/07/15 04:50:28;;;;;;;6.20;2.70;;;;;;;18.79;62.98;100385.44;5062607;28;20370;-53
2023/07/15 04:52:53;;;;;;;4.65;2.35;;;;;;;18.83;63.47;100386.78;5062216;28;20036;-52
2023/07/15 04:55:19;;;;;;;6.63;2.80;;;;;;;18.86;63.15;100381.03;5058216;28;20451;-53
2023/07/15 04:57:44;;;;;;;5.60;2.40;;;;;;;18.92;63.31;100382.13;5063302;28;20355;-50
2023/07/15 05:00:13;;;;;;;4.60;2.53;;;;;;;18.99;63.39;100383.09;5060649;28;20299;-53
2023/07/15 05:02:38;;;;;;;5.03;2.30;;;;;;;19.06;63.18;100378.63;5060972;28;20545;-50
2023/07/15 05:05:05;;;;;;;9.80;2.65;;;;;;;19.14;63.03;100378.56;5057955;28;20120;-50
2023/07/15 05:07:31;;;;;;;5.03;1.92;;;;;;;19.24;63.17;100380.97;5059826;28;20064;-51
2023/07/15 05:09:56;;;;;;;3.17;2.22;;;;;;;19.30;63.04;100374.00;5058533;28;20036;-50
2023/07/15 05:12:23;;;;;;;4.50;2.35;;;;;;;19.42;62.74;100381.41;5060971;28;20033;-49
2023/07/15 05:14:48;;;;;;;4.95;2.53;;;;;;;19.47;62.67;100378.19;5057976;28;20386;-50
2023/07/15 05:17:13;;;;;;;6.40;2.40;;;;;;;19.56;62.55;100385.13;5058385;28;20029;-50
2023/07/15 05:19:39;;;;;;;3.80;2.20;;;;;;;19.62;62.66;100388.94;5056406;28;20033;-50
2023/07/15 05:22:04;;;;;;;4.85;2.30;;;;;;;19.66;62.43;100379.44;5059016;28;20044;-50
2023/07/15 05:24:30;;;;;;;3.42;2.15;;;;;;;19.70;62.16;100375.34;5067591;28;20046;-49
2023/07/15 05:26:56;;;;;;;6.50;2.10;;;;;;;19.76;62.61;100369.22;5063697;28;20024;-49
2023/07/15 05:29:22;;;;;;;3.97;2.25;;;;;;;19.82;62.74;100382.97;5067710;28;20021;-51
2023/07/15 05:31:48;;;;;;;3.88;2.10;;;;;;;19.90;62.58;100380.16;5071543;28;20503;-50
2023/07/15 05:34:13;;;;;;;5.30;2.25;;;;;;;20.00;62.62;100378.00;5063157;28;20033;-50
2023/07/15 05:36:39;;;;;;;4.28;2.22;;;;;;;20.10;61.89;100377.66;5064340;28;20025;-50
2023/07/15 05:39:04;;;;;;;6.03;2.42;;;;;;;20.24;63.14;100373.25;5063255;28;20025;-50
2023/07/15 05:41:29;;;;;;;5.68;2.40;;;;;;;20.41;62.30;100377.34;5062111;28;20035;-50
2023/07/15 05:43:55;;;;;;;11.55;2.42;;;;;;;20.59;60.87;100376.91;5068377;28;20078;-50
2023/07/15 05:46:20;;;;;;;4.38;2.15;;;;;;;20.74;61.11;100376.84;5060837;28;20411;-49
2023/07/15 05:48:45;;;;;;;6.57;2.35;;;;;;;20.84;59.93;100385.41;5071963;28;20463;-50
2023/07/15 05:51:11;;;;;;;3.05;2.20;;;;;;;20.95;61.21;100388.59;5068921;28;20021;-50
2023/07/15 05:53:36;;;;;;;5.53;2.22;;;;;;;21.12;60.34;100392.69;5066395;28;20036;-51
2023/07/15 05:56:01;;;;;;;5.00;2.60;;;;;;;21.30;60.04;100392.19;5060423;28;20097;-50
2023/07/15 05:58:27;;;;;;;4.80;2.40;;;;;;;21.45;58.97;100392.03;5058174;28;20355;-49
2023/07/15 06:00:52;;;;;;;8.80;2.33;;;;;;;21.55;58.29;100389.84;5061223;28;20055;-50
2023/07/15 06:03:18;;;;;;;9.32;2.65;;;;;;;21.72;58.08;100387.63;5061588;28;20082;-50
2023/07/15 06:05:44;;;;;;;7.25;2.17;;;;;;;21.98;58.11;100386.03;5069811;28;20465;-51
2023/07/15 06:08:09;;;;;;;7.97;2.45;;;;;;;22.22;57.55;100392.75;5061440;28;20036;-50
2023/07/15 06:10:34;;;;;;;3.78;2.10;;;;;;;22.45;57.50;100392.41;5073791;28;20032;-51
2023/07/15 06:13:01;;;;;;;6.70;2.50;;;;;;;22.65;57.42;100397.81;5068009;28;20055;-52
2023/07/15 06:15:26;;;;;;;3.22;1.80;;;;;;;22.85;57.91;100407.81;5066020;28;20032;-51
2023/07/15 06:17:52;;;;;;;2.78;2.00;;;;;;;22.94;58.05;100401.13;5064253;28;20224;-51
2023/07/15 06:20:18;;;;;;;4.32;1.92;;;;;;;23.04;58.03;100387.97;5058592;28;20133;-52
2023/07/15 06:22:44;;;;;;;4.55;1.92;;;;;;;23.11;58.39;100393.41;5057437;28;20031;-51
2023/07/15 06:25:11;;;;;;;4.57;1.75;;;;;;;23.13;58.21;100399.44;5055196;28;20029;-52
2023/07/15 06:27:37;;;;;;;6.40;2.28;;;;;;;23.20;58.40;100396.72;5064902;28;20028;-55
2023/07/15 06:30:04;;;;;;;4.22;1.70;;;;;;;23.30;58.00;100391.72;5060100;28;20256;-55
2023/07/15 06:32:29;;;;;;;3.95;1.48;;;;;;;23.35;58.72;100397.34;5052711;28;20398;-53
2023/07/15 06:34:55;;;;;;;3.13;2.00;;;;;;;23.52;58.63;100402.28;5062113;28;20025;-53
2023/07/15 06:37:20;;;;;;;2.65;1.63;;;;;;;23.69;57.36;100411.59;5058674;28;20116;-54
2023/07/15 06:39:46;;;;;;;4.93;1.95;;;;;;;23.92;56.96;100404.88;5056205;28;20396;-52
2023/07/15 06:42:11;;;;;;;4.40;1.80;;;;;;;24.10;55.70;100407.69;5064599;28;20050;-51
2023/07/15 06:44:36;;;;;;;2.58;1.73;;;;;;;24.14;56.93;100410.78;5056887;28;20052;-52
2023/07/15 06:47:01;;;;;;;4.30;1.75;;;;;;;24.17;56.68;100404.94;5065023;28;20051;-52
2023/07/15 06:49:27;;;;;;;4.30;1.98;;;;;;;24.25;56.59;100396.53;5054965;28;20489;-54
2023/07/15 06:51:52;;;;;;;3.33;1.70;;;;;;;24.45;56.98;100400.97;5061575;28;20583;-52
2023/07/15 06:54:18;;;;;;;2.95;1.85;;;;;;;24.67;56.41;100393.31;5059675;28;20101;-52
2023/07/15 06:56:44;;;;;;;5.85;2.03;;;;;;;24.87;55.11;100383.09;5057610;28;21049;-52
2023/07/15 06:59:09;;;;;;;5.13;1.85;;;;;;;25.11;56.10;100386.00;5057670;28;20021;-54
2023/07/15 07:01:34;;;;;;;4.00;1.25;;;;;;;25.40;54.40;100389.09;5054884;28;20020;-51
2023/07/15 07:04:00;;;;;;;3.87;1.60;;;;;;;25.61;52.93;100394.06;5060677;28;20045;-52
2023/07/15 07:06:25;;;;;;;6.72;1.67;;;;;;;25.70;52.72;100394.56;5062380;28;20332;-51
2023/07/15 07:08:51;;;;;;;6.55;1.80;;;;;;;25.77;51.62;100384.44;5058243;28;20021;-52
2023/07/15 07:11:16;;;;;;;6.63;2.03;;;;;;;25.89;51.36;100387.19;5059405;28;20108;-52
2023/07/15 07:13:41;;;;;;;5.40;1.50;;;;;;;26.01;51.34;100388.13;5058431;28;20466;-51
2023/07/15 07:16:07;;;;;;;1.92;1.20;;;;;;;26.19;51.94;100402.72;5062586;28;20025;-53
2023/07/15 07:18:32;;;;;;;2.67;1.73;;;;;;;26.28;50.85;100395.91;5053900;28;20047;-52
2023/07/15 07:20:59;;;;;;;5.40;2.33;;;;;;;26.32;50.66;100399.81;5062491;28;20098;-52
2023/07/15 07:23:25;;;;;;;6.07;1.50;;;;;;;26.44;51.18;100401.72;5058443;28;20029;-51
2023/07/15 07:25:51;;;;;;;1.67;1.23;;;;;;;26.49;50.04;100405.41;5058340;28;20036;-50
2023/07/15 07:28:16;;;;;;;4.20;1.63;;;;;;;26.67;48.83;100404.53;5064453;28;20393;-51
2023/07/15 07:30:42;;;;;;;3.95;2.10;;;;;;;27.02;48.13;100406.44;5067786;28;20031;-51
2023/07/15 07:33:07;;;;;;;1.70;1.33;;;;;;;27.33;47.05;100401.72;5053436;28;20047;-50
2023/07/15 07:35:33;;;;;;;2.88;1.50;;;;;;;27.52;46.74;100412.47;5058478;28;20024;-50
2023/07/15 07:37:58;;;;;;;2.15;1.30;;;;;;;27.64;46.77;100413.25;5056576;28;20027;-51
2023/07/15 07:40:24;;;;;;;4.33;1.70;;;;;;;27.65;46.34;100415.75;5056408;28;20484;-52
2023/07/15 07:42:49;;;;;;;4.25;1.40;;;;;;;27.89;46.94;100415.66;5059426;28;20284;-51
2023/07/15 07:45:15;;;;;;;3.13;1.30;;;;;;;28.10;45.89;100399.72;5053069;28;20071;-51
2023/07/15 07:47:41;;;;;;;3.03;1.35;;;;;;;28.28;45.76;100404.09;5059067;28;20398;-51
2023/07/15 07:50:07;;;;;;;6.05;1.50;;;;;;;28.31;45.82;100406.34;5057401;28;20036;-51
2023/07/15 07:52:32;;;;;;;5.45;1.58;;;;;;;28.36;45.60;100401.81;5058892;28;20036;-51
2023/07/15 07:54:57;;;;;;;2.45;1.17;;;;;;;28.49;46.20;100408.03;5059842;28;20052;-51
2023/07/15 07:57:24;;;;;;;3.10;1.60;;;;;;;28.43;46.61;100410.69;5059233;28;20039;-51
2023/07/15 07:59:49;;;;;;;3.42;1.20;;;;;;;28.42;46.75;100398.09;5057790;28;20025;-51
2023/07/15 08:02:15;;;;;;;4.47;1.38;;;;;;;28.34;46.86;100397.66;5059322;28;20047;-51
2023/07/15 08:04:40;;;;;;;1.48;1.08;;;;;;;28.30;46.34;100415.63;5051774;28;20025;-51
2023/07/15 08:07:05;;;;;;;4.47;1.10;;;;;;;28.32;48.27;100411.56;5054346;28;20183;-51
2023/07/15 08:09:31;;;;;;;2.93;1.20;;;;;;;28.36;47.69;100410.03;5057688;28;20021;-51
2023/07/15 08:11:57;;;;;;;3.30;1.10;;;;;;;28.14;47.16;100412.59;5057478;28;20753;-51
2023/07/15 08:14:22;;;;;;;4.20;1.48;;;;;;;28.10;47.97;100416.91;5057624;28;20424;-51
2023/07/15 08:16:50;;;;;;;2.85;1.40;;;;;;;27.94;47.52;100413.06;5057456;28;20060;-51
2023/07/15 08:19:15;;;;;;;2.03;1.23;;;;;;;28.00;47.95;100414.81;5058097;28;20041;-51
2023/07/15 08:21:40;;;;;;;1.90;1.40;;;;;;;27.98;48.30;100419.69;5061260;28;20508;-51
2023/07/15 08:24:05;;;;;;;3.67;1.20;;;;;;;27.82;48.02;100418.53;5066746;28;20515;-52
2023/07/15 08:26:31;;;;;;;4.18;1.33;;;;;;;27.78;48.36;100422.81;5057907;28;20276;-52
2023/07/15 08:28:58;;;;;;;2.58;1.30;;;;;;;27.61;48.01;100427.38;5057423;28;20037;-52
2023/07/15 08:31:23;;;;;;;3.85;1.48;;;;;;;27.48;48.60;100421.13;5054981;28;20064;-52
2023/07/15 08:33:49;;;;;;;3.97;1.20;;;;;;;27.73;49.46;100430.91;5058812;28;20029;-51
2023/07/15 08:36:14;;;;;;;4.93;1.15;;;;;;;27.65;49.14;100423.09;5057818;28;20029;-53
2023/07/15 08:38:40;;;;;;;5.10;1.55;;;;;;;27.63;48.55;100423.34;5055771;28;20031;-51
2023/07/15 08:41:06;;;;;;;7.43;1.50;;;;;;;27.52;48.87;100426.91;5057425;28;20032;-51
2023/07/15 08:43:32;;;;;;;7.13;1.55;;;;;;;27.47;49.50;100426.81;5060458;28;20784;-51
2023/07/15 08:46:01;;;;;;;3.30;1.58;;;;;;;27.51;48.44;100436.16;5056831;28;20036;-51
2023/07/15 08:48:28;;;;;;;11.63;1.92;;;;;;;27.49;48.85;100447.31;5058891;28;20028;-52
2023/07/15 08:50:57;;;;;;;2.92;1.70;;;;;;;27.46;49.39;100438.78;5058014;28;20471;-50
2023/07/15 08:53:28;;;;;;;3.55;1.58;;;;;;;27.43;49.09;100442.84;5056954;28;20108;-51
2023/07/15 08:55:56;;;;;;;4.65;1.90;;;;;;;27.25;49.31;100464.75;5059130;28;20017;-50
2023/07/15 08:58:23;;;;;;;3.15;1.60;;;;;;;27.14;48.44;100464.50;5059696;28;20030;-51
2023/07/15 09:00:52;;;;;;;4.38;1.90;;;;;;;27.05;48.45;100473.28;5054878;28;20089;-51
2023/07/15 09:03:19;;;;;;;8.48;1.90;;;;;;;26.96;48.79;100478.22;5060882;28;20031;-52
2023/07/15 09:05:45;;;;;;;5.13;2.00;;;;;;;26.84;48.93;100463.78;5056722;28;20025;-50
2023/07/15 09:08:12;;;;;;;6.05;2.33;;;;;;;26.69;49.12;100473.22;5056526;28;20120;-51
2023/07/15 09:10:54;;;;;;;6.97;1.92;;;;;;;26.70;48.99;100471.34;5064143;28;20035;-50
2023/07/15 09:13:27;;;;;;;8.73;2.05;;;;;;;26.40;48.71;100472.16;5063540;28;20021;-50
2023/07/15 09:15:57;;;;;;;4.40;1.95;;;;;;;26.22;49.15;100462.16;5056219;28;20124;-52
2023/07/15 09:18:23;;;;;;;5.78;1.70;;;;;;;26.19;49.56;100474.31;5064472;28;20037;-50
2023/07/15 09:20:49;;;;;;;5.72;1.85;;;;;;;26.16;48.53;100463.91;5058732;28;20036;-52
2023/07/15 09:23:15;;;;;;;3.17;1.77;;;;;;;26.25;49.25;100472.59;5058006;28;20103;-50
2023/07/15 09:25:54;;;;;;;5.70;1.70;;;;;;;26.27;49.63;100466.91;5059172;28;20108;-51
2023/07/15 09:28:20;;;;;;;4.00;1.65;;;;;;;26.31;49.17;100476.25;5055929;28;20036;-50
2023/07/15 09:30:46;;;;;;;5.88;1.88;;;;;;;26.27;49.05;100464.19;5052363;28;20497;-51
2023/07/15 09:33:35;;;;;;;4.72;2.00;;;;;;;26.30;49.65;100480.06;5059565;28;20162;-52
2023/07/15 09:36:01;;;;;;;5.18;1.92;;;;;;;26.20;49.17;100478.72;5061188;28;20043;-50
2023/07/15 09:38:34;;;;;;;3.15;1.80;;;;;;;26.12;50.08;100478.22;5065701;28;20032;-51
2023/07/15 09:41:00;;;;;;;3.42;1.95;;;;;;;26.03;49.85;100481.25;5073586;28;20366;-51
2023/07/15 09:43:49;;;;;;;5.68;1.85;;;;;;;25.98;50.23;100489.28;5064608;28;20081;-50
2023/07/15 09:46:16;;;;;;;4.55;2.00;;;;;;;25.85;51.37;100483.97;5073096;28;20028;-50
2023/07/15 09:48:43;;;;;;;6.40;1.90;;;;;;;25.71;52.17;100491.41;5067089;28;20492;-51
2023/07/15 09:51:11;;;;;;;3.88;1.80;;;;;;;25.66;51.44;100507.59;5061246;28;20033;-51
2023/07/15 09:53:38;;;;;;;5.35;2.10;;;;;;;25.66;52.54;100510.31;5068269;28;20024;-51
2023/07/15 09:56:05;;;;;;;3.88;1.60;;;;;;;25.55;52.76;100513.81;5062305;28;20428;-50
2023/07/15 09:58:36;;;;;;;6.05;1.80;;;;;;;25.44;53.55;100521.63;5059942;28;20450;-50
2023/07/15 10:01:22;;;;;;;3.53;1.70;;;;;;;25.42;53.74;100515.56;5062752;28;20323;-51
2023/07/15 10:03:55;;;;;;;5.88;1.92;;;;;;;25.29;54.16;100524.69;5061433;28;20036;-52
2023/07/15 10:06:21;;;;;;;4.47;2.00;;;;;;;25.27;54.09;100513.19;5062258;28;20831;-51
2023/07/15 10:08:47;;;;;;;6.78;1.90;;;;;;;25.20;58.20;100517.03;5066989;28;20107;-52
2023/07/15 10:11:13;;;;;;;4.10;2.00;;;;;;;25.16;57.55;100504.91;5065381;28;20028;-53
2023/07/15 10:13:39;;;;;;;5.57;1.90;;;;;;;25.03;56.31;100505.84;5061305;28;20028;-50
2023/07/15 10:16:05;;;;;;;9.57;2.85;;;;;;;24.93;58.96;100503.63;5061316;28;20029;-51
2023/07/15 10:18:31;;;;;;;7.13;2.42;;;;;;;24.79;59.42;100489.31;5060709;28;20044;-53
2023/07/15 10:21:01;;;;;;;6.10;2.22;;;;;;;24.61;60.74;100475.66;5064767;28;20293;-51
2023/07/15 10:23:31;;;;;;;3.83;1.95;;;;;;;24.60;60.91;100476.72;5061324;28;20037;-51
2023/07/15 10:25:58;;;;;;;5.70;1.73;;;;;;;24.44;62.88;100478.88;5062710;28;20074;-51
2023/07/15 10:28:23;;;;;;;4.55;1.77;;;;;;;24.48;62.97;100485.53;5063710;28;20027;-51
2023/07/15 10:31:12;;;;;;;5.47;1.80;;;;;;;24.59;64.78;100488.63;5063826;28;20025;-53
2023/07/15 10:33:54;;;;;;;5.13;1.95;;;;;;;24.52;65.18;100486.75;5063975;28;20028;-51
2023/07/15 10:36:38;;;;;;;6.22;1.90;;;;;;;24.51;63.97;100481.53;5062840;28;20059;-51
2023/07/15 10:39:20;;;;;;;3.17;1.80;;;;;;;24.53;66.12;100479.44;5062945;28;20029;-51
2023/07/15 10:41:46;;;;;;;4.72;1.60;;;;;;;24.59;66.49;100480.50;5059997;28;20112;-51
2023/07/15 10:44:21;;;;;;;5.55;2.15;;;;;;;24.63;66.24;100481.69;5059806;28;20027;-52
2023/07/15 10:46:58;;;;;;;7.53;2.22;;;;;;;24.59;65.87;100485.91;5060566;28;20081;-52
2023/07/15 10:49:23;;;;;;;5.43;2.00;;;;;;;24.51;65.72;100487.78;5058742;28;20025;-51
2023/07/15 10:51:52;;;;;;;3.00;1.88;;;;;;;24.58;66.21;100479.66;5060318;28;20027;-51
2023/07/15 10:54:19;;;;;;;4.97;1.85;;;;;;;24.71;65.12;100487.72;5064768;28;20016;-51
2023/07/15 10:56:44;;;;;;;5.18;2.10;;;;;;;24.81;65.96;100489.94;5060091;28;20116;-51
2023/07/15 10:59:09;;;;;;;4.70;2.03;;;;;;;24.81;64.51;100497.25;5060397;28;20104;-51
2023/07/15 11:01:36;;;;;;;2.70;1.75;;;;;;;24.81;64.36;100491.81;5062752;28;20370;-51
2023/07/15 11:04:05;;;;;;;4.32;2.15;;;;;;;24.72;63.92;100489.38;5058682;28;20454;-52
2023/07/15 11:06:30;;;;;;;3.55;2.10;;;;;;;24.63;64.12;100498.00;5062671;28;20360;-51
2023/07/15 11:08:55;;;;;;;2.92;1.88;;;;;;;24.56;62.64;100498.88;5055396;28;20048;-51
2023/07/15 11:11:23;;;;;;;3.88;1.98;;;;;;;24.82;63.90;100485.34;5050507;28;20075;-51
2023/07/15 11:13:48;;;;;;;2.75;1.77;;;;;;;24.98;62.74;100494.81;5059741;28;20045;-50
2023/07/15 11:16:14;;;;;;;4.53;1.85;;;;;;;25.07;62.78;100491.59;5060491;28;20547;-51
2023/07/15 11:18:39;;;;;;;4.10;1.75;;;;;;;25.12;59.79;100483.63;5054152;28;20036;-50
2023/07/15 11:21:06;;;;;;;6.55;1.70;;;;;;;25.15;58.66;100487.78;5054096;28;20064;-52